sensor_id;sensor_type;location;lat;lon;timestamp;temperature;humidity
61979;DHT22;47938;48.176;16.414;2022-07-23T00:00:06;26.40;48.20
61979;DHT22;47938;48.176;16.414;2022-07-23T00:02:32;26.30;48.20
61979;DHT22;47938;48.176;16.414;2022-07-23T00:04:58;26.30;48.70
61979;DHT22;47938;48.176;16.414;2022-07-23T00:07:23;26.30;49.00
61979;DHT22;47938;48.176;16.414;2022-07-23T00:09:49;26.20;49.10
61979;DHT22;47938;48.176;16.414;2022-07-23T00:12:14;26.20;49.50
61979;DHT22;47938;48.176;16.414;2022-07-23T00:14:40;26.10;49.60
61979;DHT22;47938;48.176;16.414;2022-07-23T00:17:05;26.10;49.60
61979;DHT22;47938;48.176;16.414;2022-07-23T00:19:31;26.00;49.70
61979;DHT22;47938;48.176;16.414;2022-07-23T00:21:56;26.00;50.00
61979;DHT22;47938;48.176;16.414;2022-07-23T00:24:22;26.00;50.20
61979;DHT22;47938;48.176;16.414;2022-07-23T00:26:47;26.00;50.20
61979;DHT22;47938;48.176;16.414;2022-07-23T00:29:13;25.90;50.30
61979;DHT22;47938;48.176;16.414;2022-07-23T00:31:38;25.90;50.50
61979;DHT22;47938;48.176;16.414;2022-07-23T00:34:04;25.90;50.50
61979;DHT22;47938;48.176;16.414;2022-07-23T00:36:29;25.80;50.30
61979;DHT22;47938;48.176;16.414;2022-07-23T00:38:55;25.80;50.10
61979;DHT22;47938;48.176;16.414;2022-07-23T00:41:20;25.80;50.30
61979;DHT22;47938;48.176;16.414;2022-07-23T00:43:45;25.80;50.10
61979;DHT22;47938;48.176;16.414;2022-07-23T00:46:11;25.80;50.20
61979;DHT22;47938;48.176;16.414;2022-07-23T00:48:36;25.80;50.10
61979;DHT22;47938;48.176;16.414;2022-07-23T00:51:02;25.70;50.10
61979;DHT22;47938;48.176;16.414;2022-07-23T00:53:28;25.70;50.30
61979;DHT22;47938;48.176;16.414;2022-07-23T00:55:53;25.70;50.30
61979;DHT22;47938;48.176;16.414;2022-07-23T00:58:19;25.70;49.80
61979;DHT22;47938;48.176;16.414;2022-07-23T01:00:44;25.60;50.00
61979;DHT22;47938;48.176;16.414;2022-07-23T01:03:10;25.60;50.20
61979;DHT22;47938;48.176;16.414;2022-07-23T01:05:36;25.70;50.00
61979;DHT22;47938;48.176;16.414;2022-07-23T01:08:01;25.70;50.00
61979;DHT22;47938;48.176;16.414;2022-07-23T01:10:27;25.60;49.80
61979;DHT22;47938;48.176;16.414;2022-07-23T01:12:52;25.60;50.10
61979;DHT22;47938;48.176;16.414;2022-07-23T01:15:18;25.60;50.00
61979;DHT22;47938;48.176;16.414;2022-07-23T01:17:43;25.60;49.20
61979;DHT22;47938;48.176;16.414;2022-07-23T01:20:09;25.60;48.90
61979;DHT22;47938;48.176;16.414;2022-07-23T01:22:34;25.60;49.30
61979;DHT22;47938;48.176;16.414;2022-07-23T01:25:00;25.60;48.90
61979;DHT22;47938;48.176;16.414;2022-07-23T01:27:25;25.60;49.20
61979;DHT22;47938;48.176;16.414;2022-07-23T01:29:51;25.60;49.30
61979;DHT22;47938;48.176;16.414;2022-07-23T01:32:16;25.60;49.30
61979;DHT22;47938;48.176;16.414;2022-07-23T01:34:42;25.60;49.50
61979;DHT22;47938;48.176;16.414;2022-07-23T01:37:07;25.60;49.40
61979;DHT22;47938;48.176;16.414;2022-07-23T01:39:33;25.60;49.40
61979;DHT22;47938;48.176;16.414;2022-07-23T01:41:58;25.70;50.60
61979;DHT22;47938;48.176;16.414;2022-07-23T01:44:24;25.80;51.00
61979;DHT22;47938;48.176;16.414;2022-07-23T01:46:49;25.80;51.60
61979;DHT22;47938;48.176;16.414;2022-07-23T01:49:14;25.80;51.90
61979;DHT22;47938;48.176;16.414;2022-07-23T01:51:40;25.80;52.40
61979;DHT22;47938;48.176;16.414;2022-07-23T01:54:05;25.90;52.80
61979;DHT22;47938;48.176;16.414;2022-07-23T01:56:31;25.80;53.10
61979;DHT22;47938;48.176;16.414;2022-07-23T01:58:56;25.90;53.30
61979;DHT22;47938;48.176;16.414;2022-07-23T02:01:22;25.90;53.60
61979;DHT22;47938;48.176;16.414;2022-07-23T02:03:47;25.80;53.70
61979;DHT22;47938;48.176;16.414;2022-07-23T02:06:13;25.80;53.90
61979;DHT22;47938;48.176;16.414;2022-07-23T02:08:38;25.70;54.10
61979;DHT22;47938;48.176;16.414;2022-07-23T02:11:04;25.70;54.40
61979;DHT22;47938;48.176;16.414;2022-07-23T02:13:29;25.70;55.30
61979;DHT22;47938;48.176;16.414;2022-07-23T02:15:55;25.70;55.40
61979;DHT22;47938;48.176;16.414;2022-07-23T02:18:20;25.70;55.60
61979;DHT22;47938;48.176;16.414;2022-07-23T02:20:46;25.70;55.60
61979;DHT22;47938;48.176;16.414;2022-07-23T02:23:11;25.70;55.40
61979;DHT22;47938;48.176;16.414;2022-07-23T02:25:37;25.70;55.10
61979;DHT22;47938;48.176;16.414;2022-07-23T02:28:02;25.80;54.60
61979;DHT22;47938;48.176;16.414;2022-07-23T02:30:28;25.80;54.10
61979;DHT22;47938;48.176;16.414;2022-07-23T02:32:53;25.80;53.80
61979;DHT22;47938;48.176;16.414;2022-07-23T02:35:19;25.80;53.80
61979;DHT22;47938;48.176;16.414;2022-07-23T02:37:44;25.80;53.80
61979;DHT22;47938;48.176;16.414;2022-07-23T02:40:10;25.90;54.00
61979;DHT22;47938;48.176;16.414;2022-07-23T02:42:35;25.90;53.90
61979;DHT22;47938;48.176;16.414;2022-07-23T02:45:01;25.90;53.40
61979;DHT22;47938;48.176;16.414;2022-07-23T02:47:26;25.90;53.40
61979;DHT22;47938;48.176;16.414;2022-07-23T02:49:52;25.90;53.70
61979;DHT22;47938;48.176;16.414;2022-07-23T02:52:17;25.90;53.40
61979;DHT22;47938;48.176;16.414;2022-07-23T02:54:43;25.90;53.60
61979;DHT22;47938;48.176;16.414;2022-07-23T02:57:08;25.80;53.60
61979;DHT22;47938;48.176;16.414;2022-07-23T02:59:34;25.80;54.20
61979;DHT22;47938;48.176;16.414;2022-07-23T03:01:59;25.80;54.20
61979;DHT22;47938;48.176;16.414;2022-07-23T03:04:25;25.80;54.40
61979;DHT22;47938;48.176;16.414;2022-07-23T03:06:50;25.80;54.60
61979;DHT22;47938;48.176;16.414;2022-07-23T03:09:15;25.80;54.80
61979;DHT22;47938;48.176;16.414;2022-07-23T03:11:41;25.80;55.00
61979;DHT22;47938;48.176;16.414;2022-07-23T03:14:06;25.80;55.20
61979;DHT22;47938;48.176;16.414;2022-07-23T03:16:32;25.80;55.20
61979;DHT22;47938;48.176;16.414;2022-07-23T03:18:57;25.80;55.30
61979;DHT22;47938;48.176;16.414;2022-07-23T03:21:23;25.80;55.40
61979;DHT22;47938;48.176;16.414;2022-07-23T03:23:48;25.80;55.50
61979;DHT22;47938;48.176;16.414;2022-07-23T03:26:14;25.70;55.60
61979;DHT22;47938;48.176;16.414;2022-07-23T03:28:39;25.80;55.80
61979;DHT22;47938;48.176;16.414;2022-07-23T03:31:05;25.70;55.60
61979;DHT22;47938;48.176;16.414;2022-07-23T03:33:30;25.70;55.90
61979;DHT22;47938;48.176;16.414;2022-07-23T03:35:56;25.50;56.40
61979;DHT22;47938;48.176;16.414;2022-07-23T03:38:21;25.50;56.80
61979;DHT22;47938;48.176;16.414;2022-07-23T03:40:47;25.40;56.70
61979;DHT22;47938;48.176;16.414;2022-07-23T03:43:12;25.40;56.80
61979;DHT22;47938;48.176;16.414;2022-07-23T03:45:38;25.50;57.00
61979;DHT22;47938;48.176;16.414;2022-07-23T03:48:03;25.50;56.50
61979;DHT22;47938;48.176;16.414;2022-07-23T03:50:28;25.50;56.50
61979;DHT22;47938;48.176;16.414;2022-07-23T03:52:54;25.50;56.60
61979;DHT22;47938;48.176;16.414;2022-07-23T03:55:19;25.50;56.70
61979;DHT22;47938;48.176;16.414;2022-07-23T03:57:45;25.50;56.00
61979;DHT22;47938;48.176;16.414;2022-07-23T04:00:11;25.40;55.80
61979;DHT22;47938;48.176;16.414;2022-07-23T04:02:37;25.30;56.40
61979;DHT22;47938;48.176;16.414;2022-07-23T04:05:03;25.40;56.20
61979;DHT22;47938;48.176;16.414;2022-07-23T04:07:28;25.40;56.10
61979;DHT22;47938;48.176;16.414;2022-07-23T04:09:54;25.40;55.30
61979;DHT22;47938;48.176;16.414;2022-07-23T04:12:19;25.40;55.10
61979;DHT22;47938;48.176;16.414;2022-07-23T04:14:45;25.20;55.80
61979;DHT22;47938;48.176;16.414;2022-07-23T04:17:11;25.10;55.90
61979;DHT22;47938;48.176;16.414;2022-07-23T04:19:36;25.00;55.50
61979;DHT22;47938;48.176;16.414;2022-07-23T04:22:02;24.90;55.50
61979;DHT22;47938;48.176;16.414;2022-07-23T04:24:27;24.80;56.10
61979;DHT22;47938;48.176;16.414;2022-07-23T04:26:53;24.70;56.00
61979;DHT22;47938;48.176;16.414;2022-07-23T04:29:18;24.80;56.30
61979;DHT22;47938;48.176;16.414;2022-07-23T04:31:44;24.90;56.20
61979;DHT22;47938;48.176;16.414;2022-07-23T04:34:09;25.00;56.00
61979;DHT22;47938;48.176;16.414;2022-07-23T04:36:35;25.30;55.70
61979;DHT22;47938;48.176;16.414;2022-07-23T04:39:00;25.30;54.40
61979;DHT22;47938;48.176;16.414;2022-07-23T04:41:26;25.30;54.80
61979;DHT22;47938;48.176;16.414;2022-07-23T04:43:51;25.30;54.70
61979;DHT22;47938;48.176;16.414;2022-07-23T04:46:17;25.40;54.30
61979;DHT22;47938;48.176;16.414;2022-07-23T04:48:42;25.60;54.70
61979;DHT22;47938;48.176;16.414;2022-07-23T04:51:07;25.80;53.80
61979;DHT22;47938;48.176;16.414;2022-07-23T04:53:33;26.20;53.40
61979;DHT22;47938;48.176;16.414;2022-07-23T04:55:58;26.40;52.90
61979;DHT22;47938;48.176;16.414;2022-07-23T04:58:24;26.60;51.90
61979;DHT22;47938;48.176;16.414;2022-07-23T05:00:49;27.00;51.10
61979;DHT22;47938;48.176;16.414;2022-07-23T05:03:15;27.20;50.30
61979;DHT22;47938;48.176;16.414;2022-07-23T05:05:40;27.30;49.50
61979;DHT22;47938;48.176;16.414;2022-07-23T05:08:06;27.20;49.40
61979;DHT22;47938;48.176;16.414;2022-07-23T05:10:31;26.90;49.60
61979;DHT22;47938;48.176;16.414;2022-07-23T05:12:57;26.80;50.80
61979;DHT22;47938;48.176;16.414;2022-07-23T05:15:22;27.00;51.00
61979;DHT22;47938;48.176;16.414;2022-07-23T05:17:48;26.90;50.40
61979;DHT22;47938;48.176;16.414;2022-07-23T05:20:13;27.00;49.90
61979;DHT22;47938;48.176;16.414;2022-07-23T05:22:39;27.70;49.70
61979;DHT22;47938;48.176;16.414;2022-07-23T05:25:05;28.60;47.60
61979;DHT22;47938;48.176;16.414;2022-07-23T05:27:31;29.50;45.50
61979;DHT22;47938;48.176;16.414;2022-07-23T05:29:56;30.30;42.80
61979;DHT22;47938;48.176;16.414;2022-07-23T05:32:22;30.90;41.50
61979;DHT22;47938;48.176;16.414;2022-07-23T05:34:47;31.70;39.50
61979;DHT22;47938;48.176;16.414;2022-07-23T05:37:12;32.20;38.60
61979;DHT22;47938;48.176;16.414;2022-07-23T05:39:38;32.80;37.30
61979;DHT22;47938;48.176;16.414;2022-07-23T05:42:03;33.00;36.80
61979;DHT22;47938;48.176;16.414;2022-07-23T05:44:29;33.70;36.20
61979;DHT22;47938;48.176;16.414;2022-07-23T05:46:54;34.10;34.90
61979;DHT22;47938;48.176;16.414;2022-07-23T05:49:20;34.30;34.20
61979;DHT22;47938;48.176;16.414;2022-07-23T05:51:45;34.70;34.20
61979;DHT22;47938;48.176;16.414;2022-07-23T05:54:11;35.00;33.30
61979;DHT22;47938;48.176;16.414;2022-07-23T05:56:36;35.20;32.80
61979;DHT22;47938;48.176;16.414;2022-07-23T05:59:02;35.40;32.70
61979;DHT22;47938;48.176;16.414;2022-07-23T06:01:27;34.80;33.60
61979;DHT22;47938;48.176;16.414;2022-07-23T06:03:53;34.40;34.60
61979;DHT22;47938;48.176;16.414;2022-07-23T06:06:18;34.50;34.90
61979;DHT22;47938;48.176;16.414;2022-07-23T06:08:44;34.30;34.80
61979;DHT22;47938;48.176;16.414;2022-07-23T06:11:09;33.90;35.40
61979;DHT22;47938;48.176;16.414;2022-07-23T06:13:35;33.20;36.50
61979;DHT22;47938;48.176;16.414;2022-07-23T06:16:00;33.00;37.20
61979;DHT22;47938;48.176;16.414;2022-07-23T06:18:26;32.60;38.20
61979;DHT22;47938;48.176;16.414;2022-07-23T06:20:51;32.30;38.40
61979;DHT22;47938;48.176;16.414;2022-07-23T06:23:17;32.00;39.30
61979;DHT22;47938;48.176;16.414;2022-07-23T06:25:42;32.10;39.40
61979;DHT22;47938;48.176;16.414;2022-07-23T06:28:07;32.20;39.90
61979;DHT22;47938;48.176;16.414;2022-07-23T06:30:33;32.40;38.90
61979;DHT22;47938;48.176;16.414;2022-07-23T06:32:58;32.20;39.10
61979;DHT22;47938;48.176;16.414;2022-07-23T06:35:24;32.60;38.70
61979;DHT22;47938;48.176;16.414;2022-07-23T06:37:49;32.90;37.70
61979;DHT22;47938;48.176;16.414;2022-07-23T06:40:15;32.70;38.20
61979;DHT22;47938;48.176;16.414;2022-07-23T06:42:40;32.60;38.00
61979;DHT22;47938;48.176;16.414;2022-07-23T06:45:06;32.60;38.00
61979;DHT22;47938;48.176;16.414;2022-07-23T06:47:32;32.60;38.20
61979;DHT22;47938;48.176;16.414;2022-07-23T06:49:57;33.00;37.40
61979;DHT22;47938;48.176;16.414;2022-07-23T06:52:23;33.10;36.70
61979;DHT22;47938;48.176;16.414;2022-07-23T06:54:48;33.50;36.10
61979;DHT22;47938;48.176;16.414;2022-07-23T06:57:14;34.20;35.50
61979;DHT22;47938;48.176;16.414;2022-07-23T06:59:40;34.50;34.10
61979;DHT22;47938;48.176;16.414;2022-07-23T07:02:05;34.70;32.90
61979;DHT22;47938;48.176;16.414;2022-07-23T07:04:31;34.40;33.40
61979;DHT22;47938;48.176;16.414;2022-07-23T07:06:56;34.20;33.30
61979;DHT22;47938;48.176;16.414;2022-07-23T07:09:22;34.10;33.30
61979;DHT22;47938;48.176;16.414;2022-07-23T07:11:47;34.20;33.60
61979;DHT22;47938;48.176;16.414;2022-07-23T07:14:13;34.40;32.80
61979;DHT22;47938;48.176;16.414;2022-07-23T07:16:38;34.50;32.80
61979;DHT22;47938;48.176;16.414;2022-07-23T07:19:04;34.70;31.80
61979;DHT22;47938;48.176;16.414;2022-07-23T07:21:29;34.60;31.50
61979;DHT22;47938;48.176;16.414;2022-07-23T07:23:55;34.50;31.10
61979;DHT22;47938;48.176;16.414;2022-07-23T07:26:20;34.60;31.30
61979;DHT22;47938;48.176;16.414;2022-07-23T07:28:46;34.50;30.90
61979;DHT22;47938;48.176;16.414;2022-07-23T07:31:11;34.80;31.20
61979;DHT22;47938;48.176;16.414;2022-07-23T07:33:36;35.10;30.60
61979;DHT22;47938;48.176;16.414;2022-07-23T07:36:02;35.20;30.40
61979;DHT22;47938;48.176;16.414;2022-07-23T07:38:28;35.20;30.00
61979;DHT22;47938;48.176;16.414;2022-07-23T07:40:53;35.40;30.40
61979;DHT22;47938;48.176;16.414;2022-07-23T07:43:19;35.30;30.30
61979;DHT22;47938;48.176;16.414;2022-07-23T07:45:44;35.60;30.40
61979;DHT22;47938;48.176;16.414;2022-07-23T07:48:10;35.50;29.90
61979;DHT22;47938;48.176;16.414;2022-07-23T07:50:35;35.20;29.70
61979;DHT22;47938;48.176;16.414;2022-07-23T07:53:00;35.00;30.00
61979;DHT22;47938;48.176;16.414;2022-07-23T07:55:26;34.90;30.20
61979;DHT22;47938;48.176;16.414;2022-07-23T07:57:51;34.90;30.40
61979;DHT22;47938;48.176;16.414;2022-07-23T08:00:17;34.90;30.00
61979;DHT22;47938;48.176;16.414;2022-07-23T08:02:50;34.90;30.00
61979;DHT22;47938;48.176;16.414;2022-07-23T08:05:18;35.00;31.20
61979;DHT22;47938;48.176;16.414;2022-07-23T08:07:44;34.50;30.10
61979;DHT22;47938;48.176;16.414;2022-07-23T08:10:09;34.50;30.70
61979;DHT22;47938;48.176;16.414;2022-07-23T08:12:53;34.70;31.10
61979;DHT22;47938;48.176;16.414;2022-07-23T08:15:20;34.90;30.50
61979;DHT22;47938;48.176;16.414;2022-07-23T08:17:46;35.10;30.10
61979;DHT22;47938;48.176;16.414;2022-07-23T08:20:12;34.80;30.20
61979;DHT22;47938;48.176;16.414;2022-07-23T08:22:41;34.80;30.30
61979;DHT22;47938;48.176;16.414;2022-07-23T08:25:07;34.80;30.60
61979;DHT22;47938;48.176;16.414;2022-07-23T08:27:32;34.70;30.40
61979;DHT22;47938;48.176;16.414;2022-07-23T08:29:58;34.90;30.00
61979;DHT22;47938;48.176;16.414;2022-07-23T08:32:23;34.80;30.00
61979;DHT22;47938;48.176;16.414;2022-07-23T08:34:49;34.70;30.20
61979;DHT22;47938;48.176;16.414;2022-07-23T08:37:14;34.60;30.50
61979;DHT22;47938;48.176;16.414;2022-07-23T08:39:40;34.50;30.80
61979;DHT22;47938;48.176;16.414;2022-07-23T08:42:06;34.20;30.50
61979;DHT22;47938;48.176;16.414;2022-07-23T08:44:32;34.00;31.00
61979;DHT22;47938;48.176;16.414;2022-07-23T08:46:58;33.90;31.20
61979;DHT22;47938;48.176;16.414;2022-07-23T08:49:24;33.90;31.30
61979;DHT22;47938;48.176;16.414;2022-07-23T08:51:50;33.90;30.80
61979;DHT22;47938;48.176;16.414;2022-07-23T08:54:15;33.80;31.20
61979;DHT22;47938;48.176;16.414;2022-07-23T08:56:41;33.80;32.70
61979;DHT22;47938;48.176;16.414;2022-07-23T08:59:06;33.90;31.80
61979;DHT22;47938;48.176;16.414;2022-07-23T09:01:32;34.00;31.00
61979;DHT22;47938;48.176;16.414;2022-07-23T09:03:57;34.20;30.90
61979;DHT22;47938;48.176;16.414;2022-07-23T09:06:23;34.10;31.20
61979;DHT22;47938;48.176;16.414;2022-07-23T09:08:48;34.20;30.70
61979;DHT22;47938;48.176;16.414;2022-07-23T09:11:17;34.00;30.60
61979;DHT22;47938;48.176;16.414;2022-07-23T09:21:05;34.00;30.80
61979;DHT22;47938;48.176;16.414;2022-07-23T09:23:37;34.10;30.60
61979;DHT22;47938;48.176;16.414;2022-07-23T09:26:05;34.10;30.50
61979;DHT22;47938;48.176;16.414;2022-07-23T09:28:52;34.10;31.10
61979;DHT22;47938;48.176;16.414;2022-07-23T09:31:17;34.30;30.90
61979;DHT22;47938;48.176;16.414;2022-07-23T09:33:43;34.20;30.80
61979;DHT22;47938;48.176;16.414;2022-07-23T09:36:08;34.10;30.80
61979;DHT22;47938;48.176;16.414;2022-07-23T09:38:34;33.80;31.10
61979;DHT22;47938;48.176;16.414;2022-07-23T09:41:09;33.50;31.30
61979;DHT22;47938;48.176;16.414;2022-07-23T09:43:35;33.70;31.50
61979;DHT22;47938;48.176;16.414;2022-07-23T09:46:16;33.40;31.60
61979;DHT22;47938;48.176;16.414;2022-07-23T09:48:42;33.80;32.00
61979;DHT22;47938;48.176;16.414;2022-07-23T09:51:07;34.00;31.60
61979;DHT22;47938;48.176;16.414;2022-07-23T09:53:33;34.20;31.20
61979;DHT22;47938;48.176;16.414;2022-07-23T09:55:58;34.40;31.00
61979;DHT22;47938;48.176;16.414;2022-07-23T09:58:25;34.40;30.80
61979;DHT22;47938;48.176;16.414;2022-07-23T10:00:51;34.50;31.00
61979;DHT22;47938;48.176;16.414;2022-07-23T10:03:17;34.40;30.80
61979;DHT22;47938;48.176;16.414;2022-07-23T10:05:44;34.40;30.60
61979;DHT22;47938;48.176;16.414;2022-07-23T10:08:13;34.20;29.70
61979;DHT22;47938;48.176;16.414;2022-07-23T10:10:40;33.80;30.20
61979;DHT22;47938;48.176;16.414;2022-07-23T10:13:06;33.60;30.50
61979;DHT22;47938;48.176;16.414;2022-07-23T10:15:32;33.70;31.30
61979;DHT22;47938;48.176;16.414;2022-07-23T10:17:57;34.00;32.00
61979;DHT22;47938;48.176;16.414;2022-07-23T10:20:23;34.30;30.90
61979;DHT22;47938;48.176;16.414;2022-07-23T10:25:26;34.70;31.20
61979;DHT22;47938;48.176;16.414;2022-07-23T10:28:12;34.90;31.00
61979;DHT22;47938;48.176;16.414;2022-07-23T10:30:47;34.90;30.50
61979;DHT22;47938;48.176;16.414;2022-07-23T10:33:20;35.10;31.20
61979;DHT22;47938;48.176;16.414;2022-07-23T10:35:53;35.10;30.40
61979;DHT22;47938;48.176;16.414;2022-07-23T10:38:20;35.00;29.60
61979;DHT22;47938;48.176;16.414;2022-07-23T10:41:00;34.70;30.00
61979;DHT22;47938;48.176;16.414;2022-07-23T10:43:26;34.80;29.90
61979;DHT22;47938;48.176;16.414;2022-07-23T10:45:52;34.60;29.60
61979;DHT22;47938;48.176;16.414;2022-07-23T10:53:52;34.90;30.00
61979;DHT22;47938;48.176;16.414;2022-07-23T10:56:15;35.00;29.60
61979;DHT22;47938;48.176;16.414;2022-07-23T10:58:50;34.80;30.00
61979;DHT22;47938;48.176;16.414;2022-07-23T11:01:31;34.60;30.00
61979;DHT22;47938;48.176;16.414;2022-07-23T11:03:56;34.40;30.20
61979;DHT22;47938;48.176;16.414;2022-07-23T11:06:22;34.50;30.80
61979;DHT22;47938;48.176;16.414;2022-07-23T11:08:48;34.60;30.30
61979;DHT22;47938;48.176;16.414;2022-07-23T11:11:33;34.50;30.40
61979;DHT22;47938;48.176;16.414;2022-07-23T11:13:58;34.40;31.10
61979;DHT22;47938;48.176;16.414;2022-07-23T11:16:24;34.50;30.80
61979;DHT22;47938;48.176;16.414;2022-07-23T11:18:57;34.50;30.80
61979;DHT22;47938;48.176;16.414;2022-07-23T11:24:03;34.50;30.70
61979;DHT22;47938;48.176;16.414;2022-07-23T11:34:36;34.90;31.20
61979;DHT22;47938;48.176;16.414;2022-07-23T11:37:05;35.00;31.30
61979;DHT22;47938;48.176;16.414;2022-07-23T11:39:31;35.00;31.30
61979;DHT22;47938;48.176;16.414;2022-07-23T11:41:57;35.10;31.00
61979;DHT22;47938;48.176;16.414;2022-07-23T11:44:36;35.10;31.40
61979;DHT22;47938;48.176;16.414;2022-07-23T11:47:03;35.10;31.10
61979;DHT22;47938;48.176;16.414;2022-07-23T11:49:28;35.30;31.10
61979;DHT22;47938;48.176;16.414;2022-07-23T11:52:07;35.20;31.10
61979;DHT22;47938;48.176;16.414;2022-07-23T11:54:34;34.40;32.00
61979;DHT22;47938;48.176;16.414;2022-07-23T11:57:01;34.40;32.60
61979;DHT22;47938;48.176;16.414;2022-07-23T11:59:28;34.90;31.80
61979;DHT22;47938;48.176;16.414;2022-07-23T12:01:56;35.10;31.70
61979;DHT22;47938;48.176;16.414;2022-07-23T12:04:22;35.50;31.10
61979;DHT22;47938;48.176;16.414;2022-07-23T12:06:47;35.00;32.00
61979;DHT22;47938;48.176;16.414;2022-07-23T12:09:13;34.60;32.30
61979;DHT22;47938;48.176;16.414;2022-07-23T12:11:38;34.40;32.70
61979;DHT22;47938;48.176;16.414;2022-07-23T12:14:04;34.10;33.20
61979;DHT22;47938;48.176;16.414;2022-07-23T12:16:29;34.30;32.90
61979;DHT22;47938;48.176;16.414;2022-07-23T12:18:55;34.40;33.00
61979;DHT22;47938;48.176;16.414;2022-07-23T12:21:21;34.30;32.60
61979;DHT22;47938;48.176;16.414;2022-07-23T12:23:48;34.50;32.80
61979;DHT22;47938;48.176;16.414;2022-07-23T12:26:13;34.30;32.30
61979;DHT22;47938;48.176;16.414;2022-07-23T12:28:39;34.40;32.50
61979;DHT22;47938;48.176;16.414;2022-07-23T12:31:04;34.50;32.10
61979;DHT22;47938;48.176;16.414;2022-07-23T12:33:31;34.70;32.00
61979;DHT22;47938;48.176;16.414;2022-07-23T12:35:58;34.70;32.10
61979;DHT22;47938;48.176;16.414;2022-07-23T12:38:24;34.50;31.80
61979;DHT22;47938;48.176;16.414;2022-07-23T12:40:54;34.40;31.70
61979;DHT22;47938;48.176;16.414;2022-07-23T12:43:23;34.40;31.70
61979;DHT22;47938;48.176;16.414;2022-07-23T12:50:44;34.00;31.80
61979;DHT22;47938;48.176;16.414;2022-07-23T12:53:11;33.80;32.00
61979;DHT22;47938;48.176;16.414;2022-07-23T12:55:38;33.60;32.50
61979;DHT22;47938;48.176;16.414;2022-07-23T12:58:04;33.50;32.30
61979;DHT22;47938;48.176;16.414;2022-07-23T13:00:30;33.20;32.60
61979;DHT22;47938;48.176;16.414;2022-07-23T13:02:56;33.00;32.70
61979;DHT22;47938;48.176;16.414;2022-07-23T13:05:22;33.00;32.30
61979;DHT22;47938;48.176;16.414;2022-07-23T13:07:47;32.90;32.60
61979;DHT22;47938;48.176;16.414;2022-07-23T13:10:13;32.80;32.60
61979;DHT22;47938;48.176;16.414;2022-07-23T13:12:38;32.70;33.30
61979;DHT22;47938;48.176;16.414;2022-07-23T13:15:04;32.80;33.00
61979;DHT22;47938;48.176;16.414;2022-07-23T13:17:29;32.80;31.90
61979;DHT22;47938;48.176;16.414;2022-07-23T13:19:55;33.00;31.70
61979;DHT22;47938;48.176;16.414;2022-07-23T13:22:20;33.10;30.20
61979;DHT22;47938;48.176;16.414;2022-07-23T13:24:46;33.20;29.80
61979;DHT22;47938;48.176;16.414;2022-07-23T13:27:11;33.20;29.50
61979;DHT22;47938;48.176;16.414;2022-07-23T13:29:37;33.30;29.10
61979;DHT22;47938;48.176;16.414;2022-07-23T13:32:02;33.50;29.10
61979;DHT22;47938;48.176;16.414;2022-07-23T13:34:28;33.70;29.40
61979;DHT22;47938;48.176;16.414;2022-07-23T13:36:53;33.90;29.30
61979;DHT22;47938;48.176;16.414;2022-07-23T13:39:19;34.10;28.50
61979;DHT22;47938;48.176;16.414;2022-07-23T13:41:44;34.00;28.80
61979;DHT22;47938;48.176;16.414;2022-07-23T13:44:09;33.90;28.70
61979;DHT22;47938;48.176;16.414;2022-07-23T13:46:35;33.90;28.80
61979;DHT22;47938;48.176;16.414;2022-07-23T13:49:01;33.90;28.30
61979;DHT22;47938;48.176;16.414;2022-07-23T13:51:26;33.90;28.30
61979;DHT22;47938;48.176;16.414;2022-07-23T13:53:52;33.80;28.40
61979;DHT22;47938;48.176;16.414;2022-07-23T13:56:17;33.90;28.40
61979;DHT22;47938;48.176;16.414;2022-07-23T13:58:43;34.00;28.10
61979;DHT22;47938;48.176;16.414;2022-07-23T14:01:08;33.90;27.90
61979;DHT22;47938;48.176;16.414;2022-07-23T14:03:34;33.90;28.40
61979;DHT22;47938;48.176;16.414;2022-07-23T14:05:59;34.00;28.10
61979;DHT22;47938;48.176;16.414;2022-07-23T14:08:25;34.20;28.20
61979;DHT22;47938;48.176;16.414;2022-07-23T14:10:50;34.30;28.10
61979;DHT22;47938;48.176;16.414;2022-07-23T14:13:16;34.20;27.80
61979;DHT22;47938;48.176;16.414;2022-07-23T14:15:41;34.10;28.20
61979;DHT22;47938;48.176;16.414;2022-07-23T14:18:07;34.10;28.10
61979;DHT22;47938;48.176;16.414;2022-07-23T14:20:33;34.10;28.30
61979;DHT22;47938;48.176;16.414;2022-07-23T14:22:58;34.20;28.00
61979;DHT22;47938;48.176;16.414;2022-07-23T14:25:24;34.10;28.50
61979;DHT22;47938;48.176;16.414;2022-07-23T14:27:49;34.00;28.20
61979;DHT22;47938;48.176;16.414;2022-07-23T14:30:15;33.90;28.30
61979;DHT22;47938;48.176;16.414;2022-07-23T14:32:40;33.70;27.90
61979;DHT22;47938;48.176;16.414;2022-07-23T14:35:06;33.80;28.00
61979;DHT22;47938;48.176;16.414;2022-07-23T14:37:31;33.70;28.00
61979;DHT22;47938;48.176;16.414;2022-07-23T14:39:57;33.60;27.10
61979;DHT22;47938;48.176;16.414;2022-07-23T14:42:23;33.50;26.80
61979;DHT22;47938;48.176;16.414;2022-07-23T14:44:48;33.60;27.20
61979;DHT22;47938;48.176;16.414;2022-07-23T14:47:13;33.60;26.30
61979;DHT22;47938;48.176;16.414;2022-07-23T14:49:39;33.60;26.40
61979;DHT22;47938;48.176;16.414;2022-07-23T14:52:05;33.60;26.60
61979;DHT22;47938;48.176;16.414;2022-07-23T14:54:31;33.50;26.80
61979;DHT22;47938;48.176;16.414;2022-07-23T14:56:57;33.50;26.90
61979;DHT22;47938;48.176;16.414;2022-07-23T14:59:23;33.60;26.80
61979;DHT22;47938;48.176;16.414;2022-07-23T15:01:48;33.30;26.90
61979;DHT22;47938;48.176;16.414;2022-07-23T15:04:14;33.30;27.30
61979;DHT22;47938;48.176;16.414;2022-07-23T15:06:40;33.40;27.40
61979;DHT22;47938;48.176;16.414;2022-07-23T15:09:05;33.50;27.40
61979;DHT22;47938;48.176;16.414;2022-07-23T15:11:31;33.60;27.50
61979;DHT22;47938;48.176;16.414;2022-07-23T15:13:57;33.70;27.80
61979;DHT22;47938;48.176;16.414;2022-07-23T15:16:22;33.50;27.70
61979;DHT22;47938;48.176;16.414;2022-07-23T15:18:47;33.60;28.20
61979;DHT22;47938;48.176;16.414;2022-07-23T15:21:13;33.70;28.20
61979;DHT22;47938;48.176;16.414;2022-07-23T15:23:39;33.70;28.20
61979;DHT22;47938;48.176;16.414;2022-07-23T15:26:04;33.60;28.80
61979;DHT22;47938;48.176;16.414;2022-07-23T15:28:30;33.50;29.10
61979;DHT22;47938;48.176;16.414;2022-07-23T15:30:55;33.50;29.30
61979;DHT22;47938;48.176;16.414;2022-07-23T15:33:21;33.50;29.80
61979;DHT22;47938;48.176;16.414;2022-07-23T15:35:46;33.40;29.70
61979;DHT22;47938;48.176;16.414;2022-07-23T15:38:12;33.30;29.70